Time;durP1;ratioP1;P1;durP2;ratioP2;P2;SDS_P1;SDS_P2;PMS_P1;PMS_P2;Temp;Humidity;BMP_temperature;BMP_pressure;BME280_temperature;BME280_humidity;BME280_pressure;Samples;Min_cycle;Max_cycle;Signal;HPM_P1;HPM_P2
2023/07/18 00:00:38;;;;;;;2.22;0.50;;;;;;;16.43;58.14;100605.50;5042677;28;20290;-45
2023/07/18 00:03:05;;;;;;;1.67;0.60;;;;;;;16.43;57.76;100605.50;5049248;28;20063;-44
2023/07/18 00:05:34;;;;;;;1.55;0.77;;;;;;;16.41;57.69;100607.25;5058771;28;20049;-43
2023/07/18 00:08:00;;;;;;;1.75;0.75;;;;;;;16.42;58.31;100603.75;5055877;28;20448;-47
2023/07/18 00:10:27;;;;;;;1.75;0.75;;;;;;;16.40;57.76;100608.16;5055880;28;20534;-43
2023/07/18 00:12:54;;;;;;;2.20;0.93;;;;;;;16.39;57.99;100598.59;5056436;28;20049;-44
2023/07/18 00:15:21;;;;;;;2.03;0.60;;;;;;;16.38;58.80;100596.84;5049448;28;20049;-45
2023/07/18 00:17:48;;;;;;;2.50;0.63;;;;;;;16.37;57.87;100604.72;5047003;28;20048;-45
2023/07/18 00:20:19;;;;;;;2.50;0.63;;;;;;;16.33;58.48;100601.31;5051540;28;20040;-47
2023/07/18 00:22:49;;;;;;;1.63;0.75;;;;;;;16.29;58.66;100603.13;5052977;28;20097;-45
2023/07/18 00:25:19;;;;;;;1.90;0.80;;;;;;;16.26;58.85;100597.06;5052706;28;20045;-45
2023/07/18 00:27:49;;;;;;;1.92;0.60;;;;;;;16.24;58.90;100598.88;5051990;28;20219;-43
2023/07/18 00:30:17;;;;;;;1.15;0.55;;;;;;;16.19;58.75;100591.94;5041645;28;20053;-42
2023/07/18 00:32:44;;;;;;;3.83;1.17;;;;;;;16.18;59.25;100597.22;5055355;28;20055;-48
2023/07/18 00:35:13;;;;;;;2.95;0.70;;;;;;;16.14;59.22;100591.16;5059300;28;20536;-46
2023/07/18 00:37:42;;;;;;;1.40;1.05;;;;;;;16.12;59.07;100590.34;5055699;28;20128;-48
2023/07/18 00:40:11;;;;;;;2.75;1.27;;;;;;;16.11;59.09;100599.06;5055368;28;20052;-46
2023/07/18 00:42:38;;;;;;;1.75;1.10;;;;;;;16.10;58.44;100601.69;5063518;28;20040;-46
2023/07/18 00:45:07;;;;;;;1.77;1.15;;;;;;;16.08;59.32;100604.34;5057603;28;20133;-44
2023/07/18 00:47:37;;;;;;;2.80;0.50;;;;;;;16.07;58.77;100600.00;5054269;28;20055;-44
2023/07/18 00:50:07;;;;;;;3.30;0.68;;;;;;;16.03;59.37;100601.81;5044540;28;20057;-44
2023/07/18 00:52:37;;;;;;;1.40;0.70;;;;;;;16.00;59.53;100600.97;5057092;28;20048;-45
2023/07/18 00:55:04;;;;;;;1.25;0.60;;;;;;;15.93;59.08;100595.84;5053748;28;20049;-44
2023/07/18 00:57:31;;;;;;;1.60;0.73;;;;;;;15.91;59.56;100602.81;5056020;28;20075;-44
2023/07/18 00:59:59;;;;;;;2.05;0.50;;;;;;;15.88;59.31;100595.03;5057639;28;20102;-43
2023/07/18 01:02:26;;;;;;;2.17;0.80;;;;;;;15.84;59.44;100595.97;5048755;28;20060;-45
2023/07/18 01:04:53;;;;;;;2.85;0.70;;;;;;;15.82;59.48;100597.75;5054613;28;20098;-43
2023/07/18 01:07:20;;;;;;;2.00;1.08;;;;;;;15.79;59.46;100596.06;5056706;28;20049;-49
2023/07/18 01:09:47;;;;;;;3.13;1.23;;;;;;;15.78;59.58;100593.47;5049995;28;20504;-44
2023/07/18 01:12:13;;;;;;;1.45;0.85;;;;;;;15.75;59.92;100591.78;5054098;28;20052;-45
2023/07/18 01:14:40;;;;;;;1.65;0.60;;;;;;;15.73;59.66;100590.06;5056965;28;20048;-47
2023/07/18 01:17:08;;;;;;;3.75;1.27;;;;;;;15.69;60.03;100594.47;5058190;28;20055;-46
2023/07/18 01:19:35;;;;;;;1.45;0.65;;;;;;;15.68;59.70;100591.00;5051845;28;20126;-44
2023/07/18 01:22:02;;;;;;;3.95;0.90;;;;;;;15.66;59.58;100590.16;5049284;28;20079;-43
2023/07/18 01:24:29;;;;;;;2.78;0.80;;;;;;;15.65;60.05;100596.28;5055106;28;20052;-45
2023/07/18 01:26:56;;;;;;;2.38;1.13;;;;;;;15.63;60.14;100598.03;5044877;28;20045;-42
2023/07/18 01:29:24;;;;;;;1.58;0.90;;;;;;;15.63;59.53;100600.66;5058925;28;20136;-46
2023/07/18 01:31:51;;;;;;;2.28;0.98;;;;;;;15.62;60.05;100604.16;5056345;28;20048;-43
2023/07/18 01:34:17;;;;;;;2.53;1.40;;;;;;;15.61;60.61;100604.19;5054068;28;20451;-44
2023/07/18 01:36:44;;;;;;;3.22;1.27;;;;;;;15.58;60.08;100604.22;5054181;28;20090;-45
2023/07/18 01:39:10;;;;;;;4.32;1.55;;;;;;;15.54;61.20;100596.41;5051697;28;20049;-44
2023/07/18 01:41:37;;;;;;;4.40;1.65;;;;;;;15.53;61.01;100591.22;5055676;28;20060;-45
2023/07/18 01:44:04;;;;;;;2.80;1.23;;;;;;;15.51;60.96;100595.63;5054867;28;20064;-46
2023/07/18 01:46:31;;;;;;;1.85;1.05;;;;;;;15.49;61.29;100597.38;5057883;28;20068;-48
2023/07/18 01:48:58;;;;;;;5.00;1.35;;;;;;;15.48;61.30;100590.44;5041906;28;20044;-45
2023/07/18 01:51:24;;;;;;;2.75;1.05;;;;;;;15.44;61.15;100588.75;5058799;28;20393;-46
2023/07/18 01:53:51;;;;;;;4.15;1.05;;;;;;;15.42;60.91;100584.44;5057604;28;20048;-46
2023/07/18 01:56:18;;;;;;;2.58;0.80;;;;;;;15.40;60.99;100578.34;5054706;28;20126;-42
2023/07/18 01:58:45;;;;;;;2.63;1.33;;;;;;;15.38;61.88;100577.53;5059089;28;20514;-45
2023/07/18 02:01:11;;;;;;;1.88;1.05;;;;;;;15.37;61.54;100574.94;5061231;28;20504;-46
2023/07/18 02:03:38;;;;;;;4.90;0.80;;;;;;;15.33;61.83;100576.72;5051588;28;20072;-45
2023/07/18 02:06:05;;;;;;;3.15;1.00;;;;;;;15.32;61.91;100571.50;5058732;28;20049;-43
2023/07/18 02:08:31;;;;;;;3.50;1.77;;;;;;;15.30;61.35;100566.31;5053010;28;20079;-46
2023/07/18 02:10:58;;;;;;;2.75;1.10;;;;;;;15.26;61.50;100564.63;5059844;28;20049;-46
2023/07/18 02:13:24;;;;;;;4.15;0.80;;;;;;;15.22;61.57;100568.16;5065983;28;20040;-44
2023/07/18 02:15:51;;;;;;;2.15;1.00;;;;;;;15.18;62.07;100564.75;5059338;28;20049;-42
2023/07/18 02:18:18;;;;;;;2.95;1.70;;;;;;;15.18;62.46;100569.97;5063368;28;20052;-45
2023/07/18 02:20:45;;;;;;;4.07;1.00;;;;;;;15.15;61.81;100560.44;5059344;28;20037;-44
2023/07/18 02:23:12;;;;;;;2.85;1.25;;;;;;;15.13;62.14;100556.97;5056792;28;20051;-43
2023/07/18 02:25:39;;;;;;;4.93;0.98;;;;;;;15.12;61.92;100560.47;5056057;28;20045;-42
2023/07/18 02:28:07;;;;;;;3.72;1.48;;;;;;;15.10;61.83;100559.63;5053779;28;20041;-42
2023/07/18 02:30:35;;;;;;;2.25;0.93;;;;;;;15.09;62.07;100557.91;5048852;28;20544;-43
2023/07/18 02:33:04;;;;;;;2.60;2.00;;;;;;;15.06;62.15;100560.56;5055339;28;20480;-45
2023/07/18 02:35:31;;;;;;;;;;;;;;;14.84;62.86;100560.84;5055010;28;20553;-43
2023/07/18 02:37:58;;;;;;;4.97;1.63;;;;;;;14.98;61.86;100558.06;5054184;28;20003;-43
2023/07/18 02:40:25;;;;;;;5.25;1.63;;;;;;;14.98;62.53;100557.19;5059996;28;20483;-47
2023/07/18 02:42:52;;;;;;;5.10;1.15;;;;;;;14.96;62.42;100549.38;5054956;28;20041;-44
2023/07/18 02:45:18;;;;;;;2.90;1.10;;;;;;;14.95;62.88;100552.00;5065415;28;20630;-44
2023/07/18 02:47:45;;;;;;;4.18;1.45;;;;;;;14.92;62.76;100547.69;5056037;28;20044;-44
2023/07/18 02:50:12;;;;;;;2.88;1.10;;;;;;;14.89;62.55;100546.00;5055491;28;20103;-47
2023/07/18 02:52:38;;;;;;;3.00;1.20;;;;;;;14.86;62.71;100543.41;5054714;28;20489;-46
2023/07/18 02:55:06;;;;;;;2.47;1.20;;;;;;;14.82;62.60;100536.50;5057568;28;20040;-45
2023/07/18 02:57:32;;;;;;;2.85;1.10;;;;;;;14.79;62.79;100536.53;5053173;28;20036;-44
2023/07/18 02:59:59;;;;;;;4.97;1.15;;;;;;;14.75;62.90;100540.03;5051755;28;20087;-43
2023/07/18 03:02:28;;;;;;;3.72;1.63;;;;;;;14.71;63.10;100533.16;5051419;28;20083;-42
2023/07/18 03:04:56;;;;;;;2.60;1.33;;;;;;;14.69;63.28;100533.16;5053447;28;20057;-45
2023/07/18 03:07:23;;;;;;;2.38;1.45;;;;;;;14.66;63.20;100535.81;5065139;28;20052;-43
2023/07/18 03:09:49;;;;;;;2.85;1.42;;;;;;;14.63;63.08;100531.47;5051782;28;20053;-44
2023/07/18 03:12:16;;;;;;;2.83;1.40;;;;;;;14.61;63.67;100527.19;5056129;28;20593;-45
2023/07/18 03:14:43;;;;;;;2.90;1.60;;;;;;;14.58;63.84;100524.59;5052080;28;20052;-45
2023/07/18 03:17:10;;;;;;;4.40;2.05;;;;;;;14.53;63.50;100527.28;5055550;28;20055;-45
2023/07/18 03:19:37;;;;;;;8.32;1.27;;;;;;;14.50;64.26;100522.09;5058095;28;20067;-44
2023/07/18 03:22:04;;;;;;;2.90;1.27;;;;;;;14.48;63.66;100523.84;5054264;28;20063;-48
2023/07/18 03:24:33;;;;;;;3.75;1.35;;;;;;;14.46;63.68;100523.00;5057604;28;20106;-43
2023/07/18 03:27:00;;;;;;;2.35;1.73;;;;;;;14.42;63.65;100521.31;5048460;28;20047;-43
2023/07/18 03:29:27;;;;;;;2.60;1.25;;;;;;;14.38;63.68;100521.34;5051348;28;20056;-44
2023/07/18 03:31:53;;;;;;;3.92;1.95;;;;;;;14.36;63.47;100524.88;5058297;28;20067;-41
2023/07/18 03:34:20;;;;;;;3.38;1.88;;;;;;;14.33;63.71;100528.38;5048606;28;20053;-44
2023/07/18 03:36:47;;;;;;;4.68;1.50;;;;;;;14.29;63.13;100525.81;5051386;28;20840;-44
2023/07/18 03:39:14;;;;;;;2.58;1.23;;;;;;;14.26;63.74;100522.34;5061084;28;20044;-45
2023/07/18 03:41:41;;;;;;;4.45;1.70;;;;;;;14.25;63.71;100527.56;5058480;28;20072;-44
2023/07/18 03:44:07;;;;;;;3.45;1.48;;;;;;;14.22;64.03;100532.81;5060686;28;20094;-44
2023/07/18 03:46:34;;;;;;;2.58;1.38;;;;;;;14.19;63.77;100525.88;5059945;28;20063;-41
2023/07/18 03:49:01;;;;;;;3.70;1.83;;;;;;;14.20;63.71;100529.34;5047503;28;20036;-42
2023/07/18 03:51:28;;;;;;;5.22;1.65;;;;;;;14.17;64.12;100532.88;5061953;28;20536;-44
2023/07/18 03:53:59;;;;;;;3.00;1.23;;;;;;;14.14;64.12;100528.56;5051808;28;20047;-45
2023/07/18 03:56:30;;;;;;;8.30;1.52;;;;;;;14.13;64.36;100526.84;5050725;28;20648;-43
2023/07/18 03:58:57;;;;;;;3.35;1.65;;;;;;;14.11;64.30;100528.56;5057797;28;20448;-44
2023/07/18 04:01:24;;;;;;;3.85;1.70;;;;;;;14.10;64.42;100526.84;5046770;28;20040;-44
2023/07/18 04:03:51;;;;;;;3.63;2.90;;;;;;;14.07;64.41;100516.47;5059391;28;20114;-44
2023/07/18 04:06:18;;;;;;;4.40;2.45;;;;;;;14.07;65.22;100526.00;5051948;28;20068;-43
2023/07/18 04:08:44;;;;;;;3.45;2.05;;;;;;;14.05;65.08;100526.03;5058025;28;20041;-45
2023/07/18 04:11:11;;;;;;;2.75;1.60;;;;;;;14.03;64.96;100525.19;5051077;28;20052;-42
2023/07/18 04:13:38;;;;;;;7.22;1.80;;;;;;;14.02;65.01;100523.47;5061383;28;20065;-46
2023/07/18 04:16:05;;;;;;;3.90;1.83;;;;;;;14.00;65.06;100517.41;5057383;28;20052;-45
2023/07/18 04:18:32;;;;;;;3.83;1.75;;;;;;;14.00;64.61;100520.00;5055700;28;20579;-43
2023/07/18 04:21:01;;;;;;;3.63;1.83;;;;;;;13.99;65.29;100515.69;5052858;28;20264;-45
2023/07/18 04:23:28;;;;;;;5.70;1.77;;;;;;;13.98;65.01;100519.13;5063524;28;20098;-42
2023/07/18 04:26:00;;;;;;;3.58;1.50;;;;;;;13.97;65.07;100514.81;5056785;28;20071;-48
2023/07/18 04:28:29;;;;;;;2.72;1.30;;;;;;;13.97;65.07;100507.88;5057628;28;20049;-48
2023/07/18 04:30:56;;;;;;;3.13;1.50;;;;;;;13.98;65.35;100498.31;5058531;28;20051;-47
2023/07/18 04:33:23;;;;;;;6.32;1.45;;;;;;;13.99;65.75;100506.09;5049500;28;20501;-44
2023/07/18 04:35:50;;;;;;;4.47;2.15;;;;;;;14.00;64.90;100505.25;5059126;28;20057;-43
2023/07/18 04:38:17;;;;;;;5.57;1.83;;;;;;;14.01;65.85;100495.69;5051108;28;20579;-42
2023/07/18 04:40:43;;;;;;;4.13;1.45;;;;;;;14.01;66.08;100495.69;5050298;28;20044;-42
2023/07/18 04:43:10;;;;;;;3.15;1.73;;;;;;;14.02;65.25;100497.41;5058189;28;20086;-44
2023/07/18 04:45:44;;;;;;;4.50;2.55;;;;;;;14.03;65.38;100499.13;5061417;28;20151;-45
2023/07/18 04:48:12;;;;;;;5.95;1.77;;;;;;;14.07;65.40;100505.16;5054764;28;20135;-43
2023/07/18 04:50:41;;;;;;;4.50;1.80;;;;;;;14.09;65.63;100514.69;5049307;28;20080;-45
2023/07/18 04:53:10;;;;;;;2.90;1.65;;;;;;;14.13;65.70;100506.00;5061019;28;20048;-42
2023/07/18 04:55:37;;;;;;;3.72;1.55;;;;;;;14.16;65.29;100507.69;5051765;28;20044;-41
2023/07/18 04:58:06;;;;;;;4.97;1.90;;;;;;;14.20;66.04;100505.91;5059415;28;20052;-43
2023/07/18 05:00:34;;;;;;;4.60;1.90;;;;;;;14.25;66.24;100514.53;5057156;28;20520;-43
2023/07/18 05:03:01;;;;;;;4.95;1.80;;;;;;;14.28;65.98;100506.69;5054821;28;20049;-46
2023/07/18 05:05:29;;;;;;;5.93;2.17;;;;;;;14.34;66.32;100508.38;5054267;28;20048;-44
2023/07/18 05:07:58;;;;;;;4.88;1.75;;;;;;;14.39;66.23;100514.41;5044286;28;20052;-47
2023/07/18 05:10:25;;;;;;;4.57;1.52;;;;;;;14.43;66.21;100518.72;5058098;28;20044;-44
2023/07/18 05:12:53;;;;;;;6.53;1.73;;;;;;;14.51;66.34;100521.22;5053914;28;20122;-42
2023/07/18 05:15:20;;;;;;;4.28;2.20;;;;;;;14.56;66.71;100511.59;5059391;28;20063;-47
2023/07/18 05:17:47;;;;;;;5.15;2.13;;;;;;;14.61;66.36;100501.97;5055073;28;20052;-45
2023/07/18 05:20:14;;;;;;;4.97;1.83;;;;;;;14.65;66.37;100503.66;5052403;28;20049;-45
2023/07/18 05:22:43;;;;;;;3.13;1.75;;;;;;;14.69;66.12;100503.63;5054706;28;20045;-45
2023/07/18 05:25:12;;;;;;;4.65;1.95;;;;;;;14.73;66.31;100494.88;5041739;28;20051;-44
2023/07/18 05:27:40;;;;;;;8.32;2.47;;;;;;;14.75;65.79;100508.75;5052461;28;20048;-44
2023/07/18 05:30:11;;;;;;;7.45;2.15;;;;;;;14.78;66.20;100503.53;5061507;28;20049;-47
2023/07/18 05:32:39;;;;;;;4.60;2.00;;;;;;;14.84;66.49;100513.03;5066080;28;20094;-46
2023/07/18 05:35:10;;;;;;;2.67;1.50;;;;;;;14.87;66.42;100513.88;5062830;28;20044;-47
2023/07/18 05:37:38;;;;;;;6.22;1.85;;;;;;;14.91;66.44;100512.06;5056160;28;20123;-45
2023/07/18 05:40:05;;;;;;;3.85;2.50;;;;;;;14.96;66.71;100517.22;5048945;28;20052;-45
2023/07/18 05:42:33;;;;;;;6.40;2.15;;;;;;;15.01;66.93;100518.03;5065287;28;20548;-45
2023/07/18 05:44:59;;;;;;;5.45;2.28;;;;;;;15.08;66.47;100508.34;5050859;28;20131;-45
2023/07/18 05:47:26;;;;;;;5.28;1.50;;;;;;;15.12;66.42;100516.13;5061206;28;20037;-42
2023/07/18 05:49:53;;;;;;;3.88;1.90;;;;;;;15.20;66.79;100504.72;5058730;28;20561;-43
2023/07/18 05:52:19;;;;;;;5.18;2.28;;;;;;;15.25;66.69;100508.13;5052009;28;20041;-49
2023/07/18 05:54:46;;;;;;;6.28;1.70;;;;;;;15.30;66.89;100506.28;5053899;28;20058;-47
2023/07/18 05:57:13;;;;;;;6.20;2.03;;;;;;;15.34;67.12;100502.78;5057260;28;20041;-45
2023/07/18 05:59:40;;;;;;;2.92;1.55;;;;;;;15.37;65.78;100494.88;5057984;28;20056;-43
2023/07/18 06:02:07;;;;;;;3.60;2.03;;;;;;;15.40;66.64;100497.44;5047841;28;20044;-41
2023/07/18 06:04:36;;;;;;;5.00;2.03;;;;;;;15.46;66.63;100504.31;5054268;28;20053;-42
2023/07/18 06:07:03;;;;;;;4.32;1.70;;;;;;;15.50;66.42;100505.16;5054938;28;20045;-44
2023/07/18 06:09:30;;;;;;;6.28;2.70;;;;;;;15.56;66.60;100497.19;5059470;28;20052;-43
2023/07/18 06:11:57;;;;;;;5.88;1.80;;;;;;;15.63;66.72;100504.03;5062307;28;20048;-43
2023/07/18 06:14:24;;;;;;;2.30;1.50;;;;;;;15.70;67.02;100496.97;5062196;28;20052;-47
2023/07/18 06:16:51;;;;;;;4.97;2.05;;;;;;;15.79;66.40;100488.13;5058796;28;20043;-43
2023/07/18 06:19:17;;;;;;;6.13;2.22;;;;;;;15.90;66.83;100485.31;5059482;28;20450;-43
2023/07/18 06:21:44;;;;;;;4.82;1.33;;;;;;;16.00;66.59;100496.47;5062912;28;20057;-43
2023/07/18 06:24:10;;;;;;;3.83;2.55;;;;;;;16.06;66.46;100501.59;5057915;28;20049;-45
2023/07/18 06:26:48;;;;;;;6.50;2.50;;;;;;;16.10;66.51;100505.88;5063055;28;20064;-43
2023/07/18 06:29:18;;;;;;;4.45;1.77;;;;;;;16.17;67.09;100499.66;5059242;28;20040;-44
2023/07/18 06:31:46;;;;;;;5.47;2.25;;;;;;;16.27;66.75;100499.47;5050156;28;20116;-42
2023/07/18 06:34:13;;;;;;;2.58;1.33;;;;;;;16.34;66.57;100508.06;5053068;28;20493;-43
2023/07/18 06:36:40;;;;;;;5.07;1.63;;;;;;;16.42;66.12;100504.41;5061533;28;20092;-46
2023/07/18 06:39:06;;;;;;;6.70;2.08;;;;;;;16.52;66.34;100510.31;5061234;28;20109;-41
2023/07/18 06:41:33;;;;;;;5.18;1.48;;;;;;;16.62;66.30;100505.75;5056910;28;20052;-42
2023/07/18 06:44:00;;;;;;;5.07;1.85;;;;;;;16.69;66.07;100502.13;5059614;28;20714;-43
2023/07/18 06:46:27;;;;;;;4.70;1.80;;;;;;;16.78;65.91;100513.28;5063246;28;20045;-42
2023/07/18 06:48:54;;;;;;;4.07;1.30;;;;;;;16.85;65.83;100512.25;5047933;28;20055;-42
2023/07/18 06:51:21;;;;;;;4.03;1.67;;;;;;;16.90;66.46;100520.88;5061267;28;20047;-44
2023/07/18 06:53:48;;;;;;;6.85;1.95;;;;;;;16.92;66.11;100518.22;5059151;28;20048;-42
2023/07/18 06:56:14;;;;;;;6.80;2.00;;;;;;;16.93;66.17;100509.47;5064149;28;20052;-43
2023/07/18 06:58:41;;;;;;;4.95;1.83;;;;;;;16.94;66.23;100512.06;5059189;28;20450;-42
2023/07/18 07:01:10;;;;;;;5.25;1.77;;;;;;;16.98;66.27;100518.09;5057002;28;20071;-48
2023/07/18 07:03:37;;;;;;;7.07;2.17;;;;;;;17.02;65.79;100519.72;5059179;28;20480;-45
2023/07/18 07:06:12;;;;;;;6.05;2.58;;;;;;;17.06;66.01;100515.34;5052855;28;20607;-43
2023/07/18 07:08:39;;;;;;;4.10;1.60;;;;;;;17.12;66.03;100520.41;5051953;28;20037;-47
2023/07/18 07:11:08;;;;;;;6.40;2.03;;;;;;;17.19;65.95;100522.00;5057743;28;20059;-48
2023/07/18 07:13:36;;;;;;;5.95;2.22;;;;;;;17.24;66.50;100506.19;5063149;28;20072;-44
2023/07/18 07:16:03;;;;;;;4.22;1.35;;;;;;;17.31;65.85;100504.28;5042647;28;20051;-44
2023/07/18 07:18:30;;;;;;;7.63;2.25;;;;;;;17.37;65.98;100501.53;5035994;28;20036;-48
2023/07/18 07:20:57;;;;;;;6.68;2.10;;;;;;;17.42;65.28;100506.66;5048824;28;20044;-42
2023/07/18 07:23:24;;;;;;;3.38;1.20;;;;;;;17.49;65.30;100499.53;5064068;28;20041;-43
2023/07/18 07:25:51;;;;;;;4.45;2.03;;;;;;;17.53;65.49;100499.41;5058016;28;20044;-47
2023/07/18 07:28:19;;;;;;;3.78;1.50;;;;;;;17.55;65.82;100491.50;5056433;28;20047;-44
2023/07/18 07:30:46;;;;;;;4.68;1.27;;;;;;;17.57;64.99;100484.47;5062383;28;20048;-44
2023/07/18 07:33:13;;;;;;;4.05;1.55;;;;;;;17.60;65.18;100479.19;5049025;28;20091;-45
2023/07/18 07:35:39;;;;;;;7.32;2.08;;;;;;;17.65;65.16;100476.41;5059390;28;20045;-43
2023/07/18 07:38:06;;;;;;;7.07;2.47;;;;;;;17.66;64.70;100479.00;5048828;28;20040;-42
2023/07/18 07:40:33;;;;;;;4.72;1.58;;;;;;;17.71;65.48;100471.91;5059490;28;20045;-43
2023/07/18 07:43:00;;;;;;;5.75;2.13;;;;;;;17.76;64.84;100465.69;5061517;28;20041;-44
2023/07/18 07:45:27;;;;;;;5.63;1.73;;;;;;;17.84;65.15;100463.72;5059845;28;20062;-44
2023/07/18 07:47:54;;;;;;;4.38;1.75;;;;;;;17.92;64.50;100464.38;5060626;28;20091;-46
2023/07/18 07:50:21;;;;;;;6.35;2.08;;;;;;;18.00;64.67;100461.53;5050850;28;20049;-45
2023/07/18 07:52:47;;;;;;;6.05;1.85;;;;;;;18.11;65.01;100458.66;5060990;28;20049;-43
2023/07/18 07:55:15;;;;;;;4.05;1.48;;;;;;;18.20;64.05;100468.88;5058244;28;20059;-43
2023/07/18 07:57:42;;;;;;;5.75;1.85;;;;;;;18.27;64.06;100463.47;5050631;28;20649;-46
2023/07/18 08:00:09;;;;;;;3.85;1.25;;;;;;;18.36;64.51;100461.44;5056901;28;20045;-47
2023/07/18 08:02:36;;;;;;;5.75;1.80;;;;;;;18.45;63.68;100456.84;5045578;28;20048;-46
2023/07/18 08:05:03;;;;;;;3.55;1.20;;;;;;;18.54;63.59;100453.94;5059036;28;20051;-45
2023/07/18 08:07:30;;;;;;;2.83;1.63;;;;;;;18.63;63.71;100455.44;5058245;28;20110;-46
2023/07/18 08:09:57;;;;;;;2.72;1.25;;;;;;;18.71;64.07;100453.44;5059059;28;20048;-44
2023/07/18 08:12:25;;;;;;;4.28;1.52;;;;;;;18.78;63.48;100454.09;5053735;28;20052;-46
2023/07/18 08:14:53;;;;;;;4.82;2.08;;;;;;;18.84;63.48;100456.53;5056803;28;20057;-44
2023/07/18 08:17:19;;;;;;;4.03;1.60;;;;;;;18.91;63.02;100440.63;5059243;28;20052;-44
2023/07/18 08:19:46;;;;;;;4.78;1.35;;;;;;;18.95;63.12;100450.94;5048366;28;20045;-43
2023/07/18 08:22:13;;;;;;;3.78;1.67;;;;;;;18.98;62.31;100445.63;5057390;28;20418;-44
2023/07/18 08:24:39;;;;;;;7.95;1.55;;;;;;;18.99;62.31;100447.31;5062935;28;20041;-46
2023/07/18 08:27:07;;;;;;;3.20;1.75;;;;;;;19.02;61.99;100446.38;5057713;28;20680;-44
2023/07/18 08:29:35;;;;;;;3.65;1.60;;;;;;;19.08;62.10;100448.00;5054877;28;20072;-42
2023/07/18 08:32:03;;;;;;;4.03;1.40;;;;;;;19.18;62.32;100452.03;5060966;28;20048;-42
2023/07/18 08:34:29;;;;;;;3.67;1.63;;;;;;;19.28;61.69;100455.22;5048202;28;20151;-44
2023/07/18 08:36:56;;;;;;;4.53;1.48;;;;;;;19.35;61.56;100453.25;5049295;28;20053;-44
2023/07/18 08:39:23;;;;;;;2.65;0.80;;;;;;;19.39;61.95;100454.88;5052667;28;20044;-44
2023/07/18 08:41:51;;;;;;;10.90;1.90;;;;;;;19.44;61.01;100449.44;5042839;28;20044;-46
2023/07/18 08:44:20;;;;;;;2.63;1.05;;;;;;;19.42;61.05;100435.53;5049505;28;20500;-45
2023/07/18 08:46:47;;;;;;;7.03;1.33;;;;;;;19.43;60.97;100435.47;5057839;28;20052;-44
2023/07/18 08:49:17;;;;;;;4.40;1.38;;;;;;;19.51;61.33;100438.69;5047202;28;20041;-43
2023/07/18 08:51:44;;;;;;;;;;;;;;;19.43;61.02;100443.34;5060225;28;20044;-45
2023/07/18 08:54:12;;;;;;;3.17;1.70;;;;;;;19.56;61.05;100440.31;5056172;28;20435;-47
2023/07/18 08:56:42;;;;;;;4.05;1.35;;;;;;;19.61;60.39;100438.38;5088421;28;20516;-44
2023/07/18 08:59:10;;;;;;;3.40;1.30;;;;;;;19.67;61.09;100440.78;5055934;28;20056;-45
2023/07/18 09:01:47;;;;;;;4.50;1.52;;;;;;;19.73;60.69;100432.69;5058843;28;20059;-45
2023/07/18 09:04:14;;;;;;;2.13;1.23;;;;;;;19.78;60.40;100436.03;5046923;28;20691;-46
2023/07/18 09:07:02;;;;;;;4.70;1.52;;;;;;;19.84;60.58;100436.72;5061854;28;20611;-44
2023/07/18 09:09:29;;;;;;;4.32;1.58;;;;;;;19.96;60.62;100433.63;5051516;28;20072;-43
2023/07/18 09:11:59;;;;;;;3.47;1.65;;;;;;;20.04;60.36;100434.25;5063106;28;20110;-43
2023/07/18 09:14:33;;;;;;;6.90;1.35;;;;;;;20.12;60.39;100433.13;5052025;28;20059;-44
2023/07/18 09:17:03;;;;;;;3.95;1.52;;;;;;;20.18;60.05;100422.38;5060592;28;20048;-44
2023/07/18 09:19:48;;;;;;;6.35;1.42;;;;;;;20.19;59.54;100423.25;5043069;28;20136;-44
2023/07/18 09:22:17;;;;;;;4.28;0.95;;;;;;;20.24;59.65;100422.16;5049431;28;20048;-43
2023/07/18 09:24:44;;;;;;;5.18;1.38;;;;;;;20.24;59.37;100430.06;5039866;28;20049;-43
2023/07/18 09:27:16;;;;;;;3.30;1.38;;;;;;;20.26;58.97;100409.78;5055320;28;20060;-50
2023/07/18 09:29:46;;;;;;;5.78;1.83;;;;;;;20.25;58.47;100408.09;5048646;28;20068;-46
2023/07/18 09:32:18;;;;;;;3.50;1.35;;;;;;;20.28;58.52;100421.13;5046009;28;20124;-43
2023/07/18 09:34:54;;;;;;;2.55;1.65;;;;;;;20.32;58.08;100423.63;5054825;28;20079;-47
2023/07/18 09:37:21;;;;;;;6.20;1.25;;;;;;;20.35;58.25;100420.88;5052098;28;20081;-45
2023/07/18 09:39:48;;;;;;;4.47;1.20;;;;;;;20.42;58.64;100414.47;5054195;28;20131;-44
2023/07/18 09:42:17;;;;;;;5.43;1.20;;;;;;;20.60;58.62;100417.31;5052363;28;20065;-45
2023/07/18 09:44:48;;;;;;;4.18;1.10;;;;;;;20.72;57.78;100415.97;5038203;28;20397;-46
2023/07/18 09:47:18;;;;;;;4.15;1.55;;;;;;;20.84;57.95;100414.66;5055103;28;20554;-43
2023/07/18 09:49:45;;;;;;;2.25;1.13;;;;;;;21.00;57.65;100410.50;5044212;28;20063;-46
2023/07/18 09:52:14;;;;;;;2.97;0.60;;;;;;;21.28;57.19;100411.16;5049737;28;20041;-44
2023/07/18 09:54:43;;;;;;;3.30;1.10;;;;;;;21.55;56.57;100409.09;5054477;28;20079;-44
2023/07/18 09:57:11;;;;;;;3.03;0.80;;;;;;;21.73;56.50;100414.50;5053120;28;20077;-45
2023/07/18 09:59:39;;;;;;;3.90;1.25;;;;;;;21.75;55.45;100410.03;5053971;28;20157;-48
2023/07/18 10:02:09;;;;;;;3.92;0.98;;;;;;;21.83;55.27;100415.84;5052198;28;20132;-46
2023/07/18 10:04:36;;;;;;;3.15;1.05;;;;;;;21.95;54.93;100408.28;5056665;28;20044;-45
2023/07/18 10:07:08;;;;;;;1.50;0.80;;;;;;;22.00;55.03;100411.59;5052027;28;20049;-45
2023/07/18 10:09:36;;;;;;;2.53;0.93;;;;;;;22.15;54.47;100403.91;5047900;28;20045;-46
2023/07/18 10:17:28;;;;;;;3.67;0.98;;;;;;;22.43;54.09;100397.34;5052379;27;20392;-47
2023/07/18 10:19:55;;;;;;;1.60;1.20;;;;;;;22.49;53.84;100397.03;5029948;28;20045;-46
2023/07/18 10:22:28;;;;;;;3.90;1.13;;;;;;;22.56;54.33;100409.06;5027057;28;20061;-46
2023/07/18 10:25:00;;;;;;;4.45;1.50;;;;;;;22.60;54.19;100407.97;5022850;28;20067;-48
2023/07/18 10:27:36;;;;;;;3.67;1.70;;;;;;;22.67;53.80;100405.94;5022344;28;20494;-47
2023/07/18 10:30:09;;;;;;;2.15;1.08;;;;;;;22.76;54.77;100399.31;5023852;28;20045;-47
2023/07/18 10:32:37;;;;;;;2.63;2.28;;;;;;;22.92;54.75;100415.28;5022210;28;20574;-46
2023/07/18 10:35:09;;;;;;;2.65;1.42;;;;;;;23.08;53.24;100412.75;5029806;28;20045;-45
2023/07/18 10:37:37;;;;;;;3.35;0.98;;;;;;;23.20;53.23;100403.34;5022304;28;20050;-47
2023/07/18 10:40:05;;;;;;;3.97;1.38;;;;;;;23.35;53.16;100392.97;5023766;28;20041;-45
2023/07/18 10:42:34;;;;;;;1.98;1.25;;;;;;;23.43;52.31;100387.28;5023523;28;20092;-47
2023/07/18 10:45:06;;;;;;;1.95;1.17;;;;;;;23.48;52.24;100390.56;5025739;28;20077;-45
2023/07/18 10:47:35;;;;;;;3.42;1.02;;;;;;;23.54;52.47;100390.22;5022931;28;20068;-46
2023/07/18 10:50:06;;;;;;;2.58;1.13;;;;;;;23.47;50.87;100391.50;5024641;28;20042;-45
2023/07/18 10:52:34;;;;;;;2.00;0.82;;;;;;;23.40;50.74;100387.47;5027847;28;20077;-44
2023/07/18 10:55:07;;;;;;;5.18;2.38;;;;;;;23.38;51.13;100384.03;5021973;28;20624;-47
2023/07/18 10:57:35;;;;;;;3.10;0.68;;;;;;;23.36;50.71;100378.81;5026887;28;20136;-46
2023/07/18 11:00:05;;;;;;;2.78;0.82;;;;;;;23.30;51.18;100387.88;5029292;28;20054;-46
2023/07/18 11:02:41;;;;;;;2.08;0.75;;;;;;;23.23;50.98;100386.47;5022852;28;20060;-47
2023/07/18 11:05:11;;;;;;;2.53;0.88;;;;;;;23.24;51.39;100385.56;5018530;28;20593;-43
2023/07/18 11:07:42;;;;;;;1.83;0.75;;;;;;;23.26;50.95;100381.03;5024187;28;20076;-47
2023/07/18 11:10:10;;;;;;;2.60;1.15;;;;;;;23.31;50.77;100379.03;5022428;28;20049;-46
2023/07/18 11:12:37;;;;;;;2.50;0.90;;;;;;;23.35;51.13;100380.63;5022755;28;20060;-45
2023/07/18 11:15:06;;;;;;;3.03;1.33;;;;;;;23.41;50.58;100378.59;5022687;28;20053;-45
2023/07/18 11:17:33;;;;;;;3.92;1.05;;;;;;;23.40;49.49;100376.88;5022737;28;20100;-47
2023/07/18 11:20:01;;;;;;;3.13;1.05;;;;;;;23.36;49.40;100377.03;5024751;28;20052;-44
2023/07/18 11:22:29;;;;;;;1.67;0.65;;;;;;;23.32;49.00;100372.81;5023880;28;20053;-46
2023/07/18 11:24:56;;;;;;;2.17;0.50;;;;;;;23.29;48.64;100369.47;5023952;28;20049;-48
2023/07/18 11:27:25;;;;;;;2.40;1.00;;;;;;;23.25;48.48;100366.13;5021384;28;20073;-52
2023/07/18 11:35:23;;;;;;;4.82;1.23;;;;;;;23.85;47.89;100362.16;5013497;28;20931;-45
2023/07/18 11:37:51;;;;;;;;;;;;;;;23.86;48.87;100352.44;4996345;28;20046;-45
2023/07/18 11:40:21;;;;;;;3.08;1.05;;;;;;;23.99;48.69;100352.63;4996553;28;19929;-45